sensor_id;sensor_type;location;lat;lon;timestamp;temperature;humidity
26272;DHT22;13997;48.902;12.472;2023-07-02T09:39:26;563.80;2432.00
26272;DHT22;13997;48.902;12.472;2023-07-02T09:41:52;588.80;2432.00
26272;DHT22;13997;48.902;12.472;2023-07-02T09:44:19;588.80;2432.00
26272;DHT22;13997;48.902;12.472;2023-07-02T09:46:53;564.10;2432.00
26272;DHT22;13997;48.902;12.472;2023-07-02T09:49:21;564.00;2432.00
26272;DHT22;13997;48.902;12.472;2023-07-02T09:51:48;564.00;2432.00
26272;DHT22;13997;48.902;12.472;2023-07-02T09:54:14;563.80;2432.00
26272;DHT22;13997;48.902;12.472;2023-07-02T09:56:40;563.90;2432.00
26272;DHT22;13997;48.902;12.472;2023-07-02T09:59:06;563.80;2432.00
26272;DHT22;13997;48.902;12.472;2023-07-02T10:01:31;564.10;2432.00
26272;DHT22;13997;48.902;12.472;2023-07-02T10:03:57;588.80;2432.00
26272;DHT22;13997;48.902;12.472;2023-07-02T10:06:22;588.90;2432.00
26272;DHT22;13997;48.902;12.472;2023-07-02T10:08:55;589.00;2432.00
26272;DHT22;13997;48.902;12.472;2023-07-02T10:11:21;589.00;2432.00
26272;DHT22;13997;48.902;12.472;2023-07-02T10:13:58;589.30;2432.00
26272;DHT22;13997;48.902;12.472;2023-07-02T10:16:24;589.50;2432.00
26272;DHT22;13997;48.902;12.472;2023-07-02T10:18:53;589.70;2432.00
26272;DHT22;13997;48.902;12.472;2023-07-02T10:21:19;589.70;2432.00
26272;DHT22;13997;48.902;12.472;2023-07-02T10:23:44;614.50;2432.00
26272;DHT22;13997;48.902;12.472;2023-07-02T10:26:14;614.50;2432.00
26272;DHT22;13997;48.902;12.472;2023-07-02T10:28:40;614.50;2432.00
26272;DHT22;13997;48.902;12.472;2023-07-02T10:31:20;614.40;2432.00
26272;DHT22;13997;48.902;12.472;2023-07-02T10:33:47;589.70;2432.00
26272;DHT22;13997;48.902;12.472;2023-07-02T10:36:22;614.60;2432.00
26272;DHT22;13997;48.902;12.472;2023-07-02T10:38:49;614.90;2432.00
26272;DHT22;13997;48.902;12.472;2023-07-02T10:41:27;615.20;2432.00
26272;DHT22;13997;48.902;12.472;2023-07-02T10:43:53;615.10;2432.00
26272;DHT22;13997;48.902;12.472;2023-07-02T10:46:22;615.10;2432.00
26272;DHT22;13997;48.902;12.472;2023-07-02T10:48:54;615.20;2432.00
26272;DHT22;13997;48.902;12.472;2023-07-02T10:51:21;640.10;2432.00
26272;DHT22;13997;48.902;12.472;2023-07-02T10:53:56;640.20;2432.00
26272;DHT22;13997;48.902;12.472;2023-07-02T10:56:22;640.40;2432.00
26272;DHT22;13997;48.902;12.472;2023-07-02T10:58:48;640.40;2432.00
26272;DHT22;13997;48.902;12.472;2023-07-02T11:01:28;640.30;2432.00
26272;DHT22;13997;48.902;12.472;2023-07-02T11:03:58;640.20;2432.00
26272;DHT22;13997;48.902;12.472;2023-07-02T11:06:26;640.20;2432.00
26272;DHT22;13997;48.902;12.472;2023-07-02T11:08:52;640.10;2432.00
26272;DHT22;13997;48.902;12.472;2023-07-02T11:11:17;640.10;2432.00
26272;DHT22;13997;48.902;12.472;2023-07-02T11:13:47;640.10;2432.00
26272;DHT22;13997;48.902;12.472;2023-07-02T11:18:48;640.00;2432.00
26272;DHT22;13997;48.902;12.472;2023-07-02T11:21:13;640.30;2432.00
26272;DHT22;13997;48.902;12.472;2023-07-02T11:23:39;640.20;2432.00
26272;DHT22;13997;48.902;12.472;2023-07-02T11:26:05;640.00;2432.00
26272;DHT22;13997;48.902;12.472;2023-07-02T11:28:31;640.10;2432.00
26272;DHT22;13997;48.902;12.472;2023-07-02T11:30:58;640.20;2432.00
26272;DHT22;13997;48.902;12.472;2023-07-02T11:33:37;640.30;2432.00
26272;DHT22;13997;48.902;12.472;2023-07-02T11:36:07;640.50;2304.00
26272;DHT22;13997;48.902;12.472;2023-07-02T11:38:34;640.70;2355.20
26272;DHT22;13997;48.902;12.472;2023-07-02T11:40:59;640.80;2329.60
26272;DHT22;13997;48.902;12.472;2023-07-02T11:43:25;665.60;2278.40
26272;DHT22;13997;48.902;12.472;2023-07-02T11:45:51;640.90;2252.80
26272;DHT22;13997;48.902;12.472;2023-07-02T11:48:17;665.60;2355.20
26272;DHT22;13997;48.902;12.472;2023-07-02T11:50:43;665.80;2278.40
26272;DHT22;13997;48.902;12.472;2023-07-02T11:53:08;666.00;2227.20
26272;DHT22;13997;48.902;12.472;2023-07-02T11:55:34;665.90;2227.20
26272;DHT22;13997;48.902;12.472;2023-07-02T11:57:59;665.70;2176.00
26272;DHT22;13997;48.902;12.472;2023-07-02T12:00:25;640.70;2150.40
26272;DHT22;13997;48.902;12.472;2023-07-02T12:02:52;640.40;2201.60
26272;DHT22;13997;48.902;12.472;2023-07-02T12:05:17;640.50;2150.40
26272;DHT22;13997;48.902;12.472;2023-07-02T12:07:43;640.70;2176.00
26272;DHT22;13997;48.902;12.472;2023-07-02T12:10:09;665.70;2176.00
26272;DHT22;13997;48.902;12.472;2023-07-02T12:12:34;665.80;2124.80
26272;DHT22;13997;48.902;12.472;2023-07-02T12:15:00;665.80;2124.80
26272;DHT22;13997;48.902;12.472;2023-07-02T12:17:25;640.90;2073.60
26272;DHT22;13997;48.902;12.472;2023-07-02T12:19:51;640.80;2099.20
26272;DHT22;13997;48.902;12.472;2023-07-02T12:22:16;640.80;2124.80
26272;DHT22;13997;48.902;12.472;2023-07-02T12:24:43;665.60;2150.40
26272;DHT22;13997;48.902;12.472;2023-07-02T12:27:09;665.90;2124.80
26272;DHT22;13997;48.902;12.472;2023-07-02T12:29:35;666.10;2073.60
26272;DHT22;13997;48.902;12.472;2023-07-02T12:32:01;666.50;2099.20
26272;DHT22;13997;48.902;12.472;2023-07-02T12:34:27;666.40;1996.80
26272;DHT22;13997;48.902;12.472;2023-07-02T12:36:54;666.30;1996.80
26272;DHT22;13997;48.902;12.472;2023-07-02T12:39:20;666.50;2048.00
26272;DHT22;13997;48.902;12.472;2023-07-02T12:41:45;691.30;1996.80
26272;DHT22;13997;48.902;12.472;2023-07-02T12:44:11;666.50;1920.00
26272;DHT22;13997;48.902;12.472;2023-07-02T12:46:37;666.50;1996.80
26272;DHT22;13997;48.902;12.472;2023-07-02T12:49:02;691.30;1945.60
26272;DHT22;13997;48.902;12.472;2023-07-02T12:51:28;691.30;1945.60
26272;DHT22;13997;48.902;12.472;2023-07-02T12:53:53;666.40;1920.00
26272;DHT22;13997;48.902;12.472;2023-07-02T12:56:19;666.20;1945.60
26272;DHT22;13997;48.902;12.472;2023-07-02T12:58:44;666.10;1971.20
26272;DHT22;13997;48.902;12.472;2023-07-02T13:01:10;665.80;1945.60
26272;DHT22;13997;48.902;12.472;2023-07-02T13:03:35;665.80;1920.00
26272;DHT22;13997;48.902;12.472;2023-07-02T13:06:02;665.70;1945.60
26272;DHT22;13997;48.902;12.472;2023-07-02T13:08:27;640.70;1920.00
26272;DHT22;13997;48.902;12.472;2023-07-02T13:10:53;640.50;1920.00
26272;DHT22;13997;48.902;12.472;2023-07-02T13:13:18;640.40;1945.60
26272;DHT22;13997;48.902;12.472;2023-07-02T16:23:49;665.80;1766.40
26272;DHT22;13997;48.902;12.472;2023-07-02T16:26:14;665.70;1740.80
26272;DHT22;13997;48.902;12.472;2023-07-02T16:28:40;665.70;1740.80
26272;DHT22;13997;48.902;12.472;2023-07-02T16:31:07;640.90;1715.20
26272;DHT22;13997;48.902;12.472;2023-07-02T16:33:34;640.90;1715.20
26272;DHT22;13997;48.902;12.472;2023-07-02T16:36:05;640.90;1715.20
26272;DHT22;13997;48.902;12.472;2023-07-02T16:38:31;640.90;1715.20
26272;DHT22;13997;48.902;12.472;2023-07-02T16:40:57;640.80;1715.20
26272;DHT22;13997;48.902;12.472;2023-07-02T16:43:23;640.70;1740.80
26272;DHT22;13997;48.902;12.472;2023-07-02T16:45:52;640.50;1740.80
26272;DHT22;13997;48.902;12.472;2023-07-02T16:48:18;640.40;1766.40
26272;DHT22;13997;48.902;12.472;2023-07-02T16:50:44;640.40;1740.80
26272;DHT22;13997;48.902;12.472;2023-07-02T16:53:09;640.50;1740.80
26272;DHT22;13997;48.902;12.472;2023-07-02T16:55:35;640.60;1740.80
26272;DHT22;13997;48.902;12.472;2023-07-02T16:58:02;640.60;1766.40
26272;DHT22;13997;48.902;12.472;2023-07-02T17:00:28;640.70;1766.40
26272;DHT22;13997;48.902;12.472;2023-07-02T17:02:53;640.60;1766.40
26272;DHT22;13997;48.902;12.472;2023-07-02T17:05:20;640.50;1766.40
26272;DHT22;13997;48.902;12.472;2023-07-02T17:07:45;640.40;1792.00
26272;DHT22;13997;48.902;12.472;2023-07-02T17:10:11;640.30;1792.00
26272;DHT22;13997;48.902;12.472;2023-07-02T17:12:37;640.30;1766.40
26272;DHT22;13997;48.902;12.472;2023-07-02T17:15:03;640.30;1766.40
26272;DHT22;13997;48.902;12.472;2023-07-02T17:17:29;640.30;1766.40
26272;DHT22;13997;48.902;12.472;2023-07-02T17:19:57;640.30;1792.00
26272;DHT22;13997;48.902;12.472;2023-07-02T17:22:25;640.20;1792.00
26272;DHT22;13997;48.902;12.472;2023-07-02T17:24:52;640.20;1792.00
26272;DHT22;13997;48.902;12.472;2023-07-02T17:27:23;640.20;1792.00
26272;DHT22;13997;48.902;12.472;2023-07-02T17:29:50;640.20;1792.00
26272;DHT22;13997;48.902;12.472;2023-07-02T17:32:16;640.20;1817.60
26272;DHT22;13997;48.902;12.472;2023-07-02T17:34:42;640.20;1817.60
26272;DHT22;13997;48.902;12.472;2023-07-02T17:37:08;640.10;1843.20
26272;DHT22;13997;48.902;12.472;2023-07-02T17:39:36;640.00;1843.20
26272;DHT22;13997;48.902;12.472;2023-07-02T17:42:02;615.30;1817.60
26272;DHT22;13997;48.902;12.472;2023-07-02T17:44:34;615.30;1843.20
26272;DHT22;13997;48.902;12.472;2023-07-02T17:47:02;615.20;1843.20
26272;DHT22;13997;48.902;12.472;2023-07-02T17:49:34;615.20;1843.20
26272;DHT22;13997;48.902;12.472;2023-07-02T17:52:00;615.20;1868.80
26272;DHT22;13997;48.902;12.472;2023-07-02T17:54:26;615.10;1868.80
26272;DHT22;13997;48.902;12.472;2023-07-02T17:56:57;615.00;1868.80
26272;DHT22;13997;48.902;12.472;2023-07-02T17:59:22;615.00;1868.80
26272;DHT22;13997;48.902;12.472;2023-07-02T18:01:51;615.00;1894.40
26272;DHT22;13997;48.902;12.472;2023-07-02T18:04:17;615.00;1894.40
26272;DHT22;13997;48.902;12.472;2023-07-02T18:06:45;615.00;1894.40
26272;DHT22;13997;48.902;12.472;2023-07-02T18:09:14;614.90;1920.00
26272;DHT22;13997;48.902;12.472;2023-07-02T18:11:40;614.80;1920.00
26272;DHT22;13997;48.902;12.472;2023-07-02T18:14:06;614.80;1945.60
26272;DHT22;13997;48.902;12.472;2023-07-02T18:16:32;614.60;1920.00
26272;DHT22;13997;48.902;12.472;2023-07-02T18:18:58;614.60;1945.60
26272;DHT22;13997;48.902;12.472;2023-07-02T18:21:24;614.50;1945.60
26272;DHT22;13997;48.902;12.472;2023-07-02T18:23:50;614.50;1971.20
26272;DHT22;13997;48.902;12.472;2023-07-02T18:26:15;614.40;1971.20
26272;DHT22;13997;48.902;12.472;2023-07-02T18:28:41;589.70;1971.20
26272;DHT22;13997;48.902;12.472;2023-07-02T18:31:08;589.70;1971.20
26272;DHT22;13997;48.902;12.472;2023-07-02T18:33:34;589.60;1996.80
26272;DHT22;13997;48.902;12.472;2023-07-02T18:36:00;589.60;1996.80
26272;DHT22;13997;48.902;12.472;2023-07-02T18:38:26;589.50;1996.80
26272;DHT22;13997;48.902;12.472;2023-07-02T18:41:04;589.50;2022.40
26272;DHT22;13997;48.902;12.472;2023-07-02T18:43:32;589.50;2022.40
26272;DHT22;13997;48.902;12.472;2023-07-02T18:45:58;589.40;2048.00
26272;DHT22;13997;48.902;12.472;2023-07-02T18:48:24;589.30;2048.00
26272;DHT22;13997;48.902;12.472;2023-07-02T18:50:50;589.30;2073.60
26272;DHT22;13997;48.902;12.472;2023-07-02T18:53:19;589.20;2073.60
26272;DHT22;13997;48.902;12.472;2023-07-02T18:56:05;589.10;2099.20
26272;DHT22;13997;48.902;12.472;2023-07-02T18:58:32;589.00;2073.60
26272;DHT22;13997;48.902;12.472;2023-07-02T19:00:59;588.90;2073.60
26272;DHT22;13997;48.902;12.472;2023-07-02T19:03:25;588.80;2099.20
26272;DHT22;13997;48.902;12.472;2023-07-02T19:05:51;588.80;2099.20
26272;DHT22;13997;48.902;12.472;2023-07-02T19:08:18;564.10;2124.80
26272;DHT22;13997;48.902;12.472;2023-07-02T19:10:44;564.00;2150.40
26272;DHT22;13997;48.902;12.472;2023-07-02T19:13:12;563.90;2150.40
26272;DHT22;13997;48.902;12.472;2023-07-02T19:15:38;563.80;2176.00
26272;DHT22;13997;48.902;12.472;2023-07-02T19:18:05;563.80;2176.00
26272;DHT22;13997;48.902;12.472;2023-07-02T19:20:31;563.80;2201.60
26272;DHT22;13997;48.902;12.472;2023-07-02T19:22:57;563.60;2201.60
26272;DHT22;13997;48.902;12.472;2023-07-02T19:25:23;563.50;2201.60
26272;DHT22;13997;48.902;12.472;2023-07-02T19:27:48;563.50;2227.20
26272;DHT22;13997;48.902;12.472;2023-07-02T19:30:14;563.40;2227.20
26272;DHT22;13997;48.902;12.472;2023-07-02T19:32:40;563.30;2252.80
26272;DHT22;13997;48.902;12.472;2023-07-02T19:35:07;563.30;2278.40
26272;DHT22;13997;48.902;12.472;2023-07-02T19:37:34;563.20;2278.40
26272;DHT22;13997;48.902;12.472;2023-07-02T19:40:00;538.50;2252.80
26272;DHT22;13997;48.902;12.472;2023-07-02T19:42:26;538.40;2227.20
26272;DHT22;13997;48.902;12.472;2023-07-02T19:44:56;538.30;2252.80
26272;DHT22;13997;48.902;12.472;2023-07-02T19:47:22;538.30;2278.40
26272;DHT22;13997;48.902;12.472;2023-07-02T19:49:47;538.20;2329.60
26272;DHT22;13997;48.902;12.472;2023-07-02T19:52:15;538.20;2329.60
26272;DHT22;13997;48.902;12.472;2023-07-02T19:54:41;538.20;2355.20
